createdAt,value
2022-08-23T00:01:26.508Z,99.90
2022-08-23T00:03:57.656Z,99.90
2022-08-23T00:06:25.846Z,99.90
2022-08-23T00:08:53.900Z,99.90
2022-08-23T00:11:38.178Z,99.90
2022-08-23T00:14:13.237Z,99.90
2022-08-23T00:16:41.657Z,99.90
2022-08-23T00:19:11.220Z,99.90
2022-08-23T00:21:38.942Z,99.90
2022-08-23T00:24:07.523Z,99.90
2022-08-23T00:26:57.965Z,99.90
2022-08-23T00:29:31.125Z,99.90
2022-08-23T00:31:58.459Z,99.90
2022-08-23T00:34:25.513Z,99.90
2022-08-23T00:36:53.084Z,99.90
2022-08-23T00:39:21.749Z,99.90
2022-08-23T00:41:50.311Z,99.90
2022-08-23T00:44:44.793Z,99.90
2022-08-23T00:47:32.907Z,99.90
2022-08-23T00:50:27.937Z,99.90
2022-08-23T00:52:57.981Z,99.90
2022-08-23T00:55:25.561Z,99.90
2022-08-23T00:57:52.805Z,99.90
2022-08-23T01:00:20.594Z,99.90
2022-08-23T01:02:50.676Z,99.90
2022-08-23T01:05:18.089Z,99.90
2022-08-23T01:07:50.389Z,99.90
2022-08-23T01:10:29.269Z,99.90
2022-08-23T01:13:20.334Z,99.90
2022-08-23T01:15:55.879Z,99.90
2022-08-23T01:18:26.196Z,99.90
2022-08-23T01:21:13.580Z,99.90
2022-08-23T01:23:42.697Z,99.90
2022-08-23T01:26:11.172Z,99.90
2022-08-23T01:28:40.893Z,99.90
2022-08-23T01:31:15.091Z,99.90
2022-08-23T01:33:45.648Z,99.90
2022-08-23T01:36:14.725Z,99.90
2022-08-23T01:38:42.017Z,99.90
2022-08-23T01:41:09.568Z,99.90
2022-08-23T01:43:37.911Z,99.90
2022-08-23T01:46:11.153Z,99.90
2022-08-23T01:48:39.501Z,99.90
2022-08-23T01:51:07.794Z,99.90
2022-08-23T01:53:35.996Z,99.90
2022-08-23T01:56:04.254Z,99.90
2022-08-23T01:58:36.553Z,99.90
2022-08-23T02:01:04.844Z,99.90
2022-08-23T02:03:34.625Z,99.90
2022-08-23T02:06:01.689Z,99.90
2022-08-23T02:08:47.570Z,99.90
2022-08-23T02:11:18.858Z,99.90
2022-08-23T02:13:47.560Z,99.90
2022-08-23T02:16:29.632Z,99.90
2022-08-23T02:18:57.489Z,99.90
2022-08-23T02:21:25.484Z,99.90
2022-08-23T02:23:52.610Z,99.90
2022-08-23T02:26:20.386Z,99.90
2022-08-23T02:28:58.341Z,99.90
2022-08-23T02:31:26.576Z,99.90
2022-08-23T02:33:55.508Z,99.90
2022-08-23T02:36:23.895Z,99.90
2022-08-23T02:38:51.446Z,99.90
2022-08-23T02:41:18.418Z,99.90
2022-08-23T02:43:45.713Z,99.90
2022-08-23T02:46:13.026Z,99.90
2022-08-23T02:48:40.335Z,99.90
2022-08-23T02:51:08.610Z,99.90
2022-08-23T02:53:36.355Z,99.90
2022-08-23T02:56:07.194Z,99.90
2022-08-23T02:58:49.784Z,99.90
2022-08-23T03:01:31.736Z,99.90
2022-08-23T03:04:10.043Z,99.90
2022-08-23T03:06:38.339Z,99.90
2022-08-23T03:09:07.391Z,99.90
2022-08-23T03:11:35.105Z,99.90
2022-08-23T03:14:02.172Z,99.90
2022-08-23T03:16:30.371Z,99.90
2022-08-23T03:18:57.508Z,99.90
2022-08-23T03:21:24.574Z,99.90
2022-08-23T03:23:52.224Z,99.90
2022-08-23T03:26:19.966Z,99.90
2022-08-23T03:28:47.973Z,99.90
2022-08-23T03:31:15.842Z,99.90
2022-08-23T03:33:59.723Z,99.90
2022-08-23T03:36:28.106Z,99.90
2022-08-23T03:38:56.703Z,99.90
2022-08-23T03:41:24.363Z,99.90
2022-08-23T03:43:52.729Z,99.90
2022-08-23T03:46:23.833Z,99.90
2022-08-23T03:48:59.646Z,99.90
2022-08-23T03:51:31.461Z,99.90
2022-08-23T03:54:00.324Z,99.90
2022-08-23T03:56:29.985Z,99.90
2022-08-23T03:59:00.815Z,99.90
2022-08-23T04:01:28.889Z,99.90
2022-08-23T04:04:00.381Z,99.90
2022-08-23T04:06:29.645Z,99.90
2022-08-23T04:08:57.076Z,99.90
2022-08-23T04:11:25.542Z,99.90
2022-08-23T04:14:06.605Z,99.90
2022-08-23T04:16:37.607Z,99.90
2022-08-23T04:19:13.092Z,99.90
2022-08-23T04:21:57.353Z,99.90
2022-08-23T04:24:26.322Z,99.90
2022-08-23T04:26:53.385Z,99.90
2022-08-23T04:29:24.914Z,99.90
2022-08-23T04:32:05.490Z,99.90
2022-08-23T04:34:37.020Z,99.90
2022-08-23T04:37:04.158Z,99.90
2022-08-23T04:39:57.945Z,99.90
2022-08-23T04:42:30.040Z,99.90
2022-08-23T04:44:57.623Z,99.90
2022-08-23T04:47:24.537Z,99.90
2022-08-23T04:49:53.680Z,99.90
2022-08-23T04:52:20.635Z,99.90
2022-08-23T04:54:48.221Z,99.90
2022-08-23T04:57:42.609Z,99.90
2022-08-23T05:00:14.254Z,99.90
2022-08-23T05:02:49.434Z,99.90
2022-08-23T05:05:17.418Z,99.90
2022-08-23T05:07:45.566Z,99.90
2022-08-23T05:10:15.106Z,99.90
2022-08-23T05:12:46.862Z,99.90
2022-08-23T05:15:14.129Z,99.90
2022-08-23T05:17:45.926Z,99.90
2022-08-23T05:20:13.330Z,99.90
2022-08-23T05:22:42.121Z,99.90
2022-08-23T05:25:52.527Z,99.90
2022-08-23T05:28:48.609Z,99.90
2022-08-23T05:31:24.279Z,99.90
2022-08-23T05:33:57.933Z,99.90
2022-08-23T05:37:00.426Z,99.90
2022-08-23T05:39:37.086Z,99.90
2022-08-23T05:42:13.185Z,99.90
2022-08-23T05:44:41.122Z,99.90
2022-08-23T05:47:11.956Z,99.90
2022-08-23T05:50:14.331Z,99.90
2022-08-23T05:52:41.645Z,99.90
2022-08-23T05:55:09.989Z,99.90
2022-08-23T05:58:12.407Z,99.90
2022-08-23T06:00:40.811Z,99.90
2022-08-23T06:03:09.183Z,99.90
2022-08-23T06:05:40.810Z,99.90
2022-08-23T06:08:08.319Z,99.90
2022-08-23T06:10:42.016Z,99.90
2022-08-23T06:13:26.113Z,99.90
2022-08-23T06:15:53.180Z,99.90
2022-08-23T06:18:20.907Z,99.90
2022-08-23T06:20:49.314Z,99.90
2022-08-23T06:23:23.043Z,99.90
2022-08-23T06:25:50.112Z,99.90
2022-08-23T06:28:19.522Z,99.90
2022-08-23T06:30:55.209Z,99.90
2022-08-23T06:33:35.066Z,99.90
2022-08-23T06:36:41.005Z,99.90
2022-08-23T06:39:25.357Z,99.90
2022-08-23T06:42:01.729Z,99.90
2022-08-23T06:44:30.729Z,99.90
2022-08-23T06:47:14.810Z,99.90
2022-08-23T06:49:41.822Z,99.90
2022-08-23T06:52:31.631Z,99.90
2022-08-23T06:55:19.469Z,99.90
2022-08-23T06:58:16.658Z,99.90
2022-08-23T07:01:44.541Z,99.90
2022-08-23T07:04:38.201Z,99.90
2022-08-23T07:07:37.692Z,99.90
2022-08-23T07:10:13.852Z,99.90
2022-08-23T07:12:42.850Z,99.90
2022-08-23T07:15:12.766Z,99.90
2022-08-23T07:17:42.950Z,99.90
2022-08-23T07:20:10.285Z,99.90
2022-08-23T07:22:40.548Z,99.90
2022-08-23T07:25:09.110Z,99.90
2022-08-23T07:27:37.781Z,99.90
2022-08-23T07:30:08.376Z,99.90
2022-08-23T07:32:37.503Z,99.90
2022-08-23T07:35:24.448Z,99.90
2022-08-23T07:37:55.905Z,99.90
2022-08-23T07:40:24.222Z,99.90
2022-08-23T07:42:58.005Z,99.90
2022-08-23T07:45:25.591Z,99.90
2022-08-23T07:47:56.871Z,99.90
2022-08-23T07:50:30.272Z,99.90
2022-08-23T07:53:01.088Z,99.90
2022-08-23T07:55:29.076Z,99.90
2022-08-23T07:58:19.024Z,99.90
2022-08-23T08:00:54.165Z,99.90
2022-08-23T08:03:43.835Z,99.90
2022-08-23T08:06:33.373Z,99.90
2022-08-23T08:09:00.676Z,99.90
2022-08-23T08:11:34.488Z,99.90
2022-08-23T08:14:07.391Z,99.90
2022-08-23T08:16:40.771Z,99.90
2022-08-23T08:19:10.484Z,99.90
2022-08-23T08:22:06.439Z,99.90
2022-08-23T08:25:02.936Z,99.90
2022-08-23T08:27:30.358Z,99.90
2022-08-23T08:30:01.269Z,99.90
2022-08-23T08:32:29.970Z,99.90
2022-08-23T08:34:56.929Z,99.90
2022-08-23T08:37:24.026Z,99.90
2022-08-23T08:39:52.167Z,99.90
2022-08-23T08:42:43.572Z,99.70
2022-08-23T08:45:23.451Z,98.80
2022-08-23T08:47:58.173Z,98.80
2022-08-23T08:50:33.734Z,99.00
2022-08-23T08:53:09.951Z,98.50
2022-08-23T08:56:21.325Z,96.80
2022-08-23T08:59:07.829Z,96.20
2022-08-23T09:01:38.508Z,96.30
2022-08-23T09:04:07.822Z,95.60
2022-08-23T09:06:51.165Z,95.30
2022-08-23T09:09:27.349Z,94.70
2022-08-23T09:12:18.281Z,94.30
2022-08-23T09:15:05.959Z,93.40
2022-08-23T09:17:40.650Z,92.90
2022-08-23T09:20:08.862Z,92.10
2022-08-23T09:22:45.843Z,92.10
2022-08-23T09:25:24.102Z,92.10
2022-08-23T09:28:15.855Z,91.40
2022-08-23T09:30:50.300Z,91.20
2022-08-23T09:33:21.329Z,88.90
2022-08-23T09:36:22.529Z,87.70
2022-08-23T09:39:00.237Z,86.50
2022-08-23T09:41:33.922Z,86.20
2022-08-23T09:44:02.811Z,86.00
2022-08-23T09:46:37.708Z,86.20
2022-08-23T09:49:28.409Z,85.30
2022-08-23T09:52:22.185Z,86.60
2022-08-23T09:55:04.483Z,83.90
2022-08-23T09:57:38.079Z,81.20
2022-08-23T10:00:22.181Z,82.50
2022-08-23T10:02:57.345Z,80.20
2022-08-23T10:05:38.322Z,79.40
2022-08-23T10:08:10.659Z,76.90
2022-08-23T10:10:51.800Z,80.20
2022-08-23T10:13:27.009Z,78.40
2022-08-23T10:16:25.936Z,77.40
2022-08-23T10:18:59.778Z,77.10
2022-08-23T10:21:41.489Z,76.00
2022-08-23T10:24:16.644Z,74.60
2022-08-23T10:26:59.146Z,73.70
2022-08-23T10:29:48.659Z,74.70
2022-08-23T10:32:57.485Z,70.80
2022-08-23T10:35:52.686Z,70.30
2022-08-23T10:38:41.129Z,70.40
2022-08-23T10:41:33.698Z,71.00
2022-08-23T10:44:36.876Z,71.70
2022-08-23T10:47:23.339Z,70.50
2022-08-23T10:49:52.987Z,69.90
2022-08-23T10:52:30.583Z,67.80
2022-08-23T10:55:17.054Z,67.30
2022-08-23T10:57:48.123Z,68.50
2022-08-23T11:00:21.470Z,68.50
2022-08-23T11:02:56.138Z,71.40
2022-08-23T11:05:35.516Z,69.80
2022-08-23T11:08:38.207Z,68.20
2022-08-23T11:11:39.609Z,70.60
2022-08-23T11:14:13.049Z,70.70
2022-08-23T11:16:46.411Z,69.30
2022-08-23T11:19:34.759Z,69.00
2022-08-23T11:22:54.817Z,66.90
2022-08-23T11:25:21.813Z,64.70
2022-08-23T11:27:49.367Z,64.70
2022-08-23T11:30:32.412Z,62.80
2022-08-23T11:33:24.588Z,65.50
2022-08-23T11:36:17.971Z,65.60
2022-08-23T11:38:47.846Z,65.00
2022-08-23T11:41:19.177Z,65.70
2022-08-23T11:44:08.274Z,63.90
2022-08-23T11:46:37.451Z,65.50
2022-08-23T11:49:31.074Z,64.50
2022-08-23T11:52:26.552Z,65.30
2022-08-23T11:55:22.006Z,62.40
2022-08-23T11:57:48.934Z,64.10
2022-08-23T12:00:46.971Z,63.90
2022-08-23T12:03:34.072Z,63.00
2022-08-23T12:06:07.027Z,62.80
2022-08-23T12:08:55.758Z,61.10
2022-08-23T12:11:25.894Z,62.10
2022-08-23T12:14:01.958Z,62.80
2022-08-23T12:16:33.570Z,60.60
2022-08-23T12:19:07.158Z,62.80
2022-08-23T12:21:42.066Z,60.90
2022-08-23T12:24:17.041Z,57.80
2022-08-23T12:27:26.562Z,58.00
2022-08-23T12:29:53.576Z,59.40
2022-08-23T12:32:20.541Z,58.30
2022-08-23T12:35:14.757Z,58.20
2022-08-23T12:38:09.417Z,58.20
2022-08-23T12:40:48.123Z,59.60
2022-08-23T12:43:22.657Z,59.00
2022-08-23T12:45:56.223Z,58.90
2022-08-23T12:48:27.677Z,56.80
2022-08-23T12:50:56.944Z,56.70
2022-08-23T12:53:34.150Z,54.60
2022-08-23T12:56:05.646Z,52.40
2022-08-23T12:58:35.520Z,52.00
2022-08-23T13:01:16.760Z,51.10
2022-08-23T13:03:48.882Z,51.20
2022-08-23T13:06:24.264Z,50.30
2022-08-23T13:09:02.696Z,49.60
2022-08-23T13:11:32.633Z,51.40
2022-08-23T13:14:01.195Z,51.50
2022-08-23T13:16:37.530Z,51.50
2022-08-23T13:19:24.967Z,53.40
2022-08-23T13:22:23.682Z,53.20
2022-08-23T13:25:01.351Z,52.80
2022-08-23T13:27:54.204Z,53.70
2022-08-23T13:30:30.170Z,51.90
2022-08-23T13:33:18.574Z,50.20
2022-08-23T13:35:52.653Z,48.00
2022-08-23T13:38:24.898Z,48.00
2022-08-23T13:41:02.393Z,50.10
2022-08-23T13:43:47.988Z,50.70
2022-08-23T13:46:28.350Z,50.40
2022-08-23T13:49:29.243Z,50.70
2022-08-23T13:52:18.314Z,50.10
2022-08-23T13:54:46.219Z,49.40
2022-08-23T13:57:19.180Z,49.10
2022-08-23T13:59:52.781Z,48.50
2022-08-23T14:02:22.003Z,51.10
2022-08-23T14:04:49.263Z,50.00
2022-08-23T14:07:16.887Z,48.50
2022-08-23T14:09:44.219Z,48.90
2022-08-23T14:12:23.786Z,48.30
2022-08-23T14:14:51.094Z,49.90
2022-08-23T14:17:20.598Z,51.00
2022-08-23T14:20:32.967Z,50.50
2022-08-23T14:22:36.024Z,50.20
2022-08-23T14:25:03.801Z,48.50
2022-08-23T14:27:31.253Z,48.90
2022-08-23T14:29:58.460Z,49.30
2022-08-23T14:32:25.554Z,49.30
2022-08-23T14:34:52.681Z,48.10
2022-08-23T14:38:00.855Z,49.80
2022-08-23T14:40:07.336Z,49.10
2022-08-23T14:42:34.466Z,50.30
2022-08-23T14:45:01.799Z,49.30
2022-08-23T14:47:28.736Z,50.10
2022-08-23T14:49:55.742Z,50.70
2022-08-23T14:52:23.152Z,50.30
2022-08-23T14:54:50.689Z,50.10
2022-08-23T14:57:17.970Z,50.60
2022-08-23T14:59:44.925Z,50.70
2022-08-23T15:02:16.257Z,50.40
2022-08-23T15:04:43.176Z,50.90
2022-08-23T15:07:18.856Z,50.50
2022-08-23T15:09:50.396Z,50.70
2022-08-23T15:15:12.173Z,48.50
2022-08-23T15:17:47.924Z,47.20
2022-08-23T15:20:15.468Z,47.20
2022-08-23T15:22:44.954Z,48.00
2022-08-23T15:25:13.907Z,47.90
2022-08-23T15:27:42.626Z,46.80
2022-08-23T15:30:11.252Z,46.60
2022-08-23T15:32:38.237Z,47.20
2022-08-23T15:35:09.260Z,48.60
2022-08-23T15:37:36.677Z,46.70
2022-08-23T15:40:06.241Z,46.20
2022-08-23T15:42:33.410Z,45.90
2022-08-23T15:45:00.359Z,44.60
2022-08-23T15:47:35.406Z,44.70
2022-08-23T15:50:04.431Z,44.70
2022-08-23T15:52:31.370Z,47.00
2022-08-23T15:54:58.457Z,47.60
2022-08-23T15:57:28.631Z,46.60
2022-08-23T15:59:57.244Z,48.50
2022-08-23T16:02:24.376Z,48.90
2022-08-23T16:04:51.573Z,48.00
2022-08-23T16:07:18.797Z,48.80
2022-08-23T16:09:45.897Z,48.70
2022-08-23T16:12:13.013Z,48.80
2022-08-23T16:14:39.888Z,49.80
2022-08-23T16:17:08.034Z,48.60
2022-08-23T16:19:35.170Z,48.30
2022-08-23T16:22:03.108Z,48.10
2022-08-23T16:24:30.053Z,47.90
2022-08-23T16:26:57.247Z,48.00
2022-08-23T16:29:24.399Z,50.40
2022-08-23T16:31:52.103Z,50.00
2022-08-23T16:34:20.235Z,49.60
2022-08-23T16:36:51.856Z,49.50
2022-08-23T16:39:22.494Z,49.30
2022-08-23T16:41:49.477Z,50.30
2022-08-23T16:44:18.005Z,50.70
2022-08-23T16:46:45.039Z,51.50
2022-08-23T16:49:14.094Z,49.80
2022-08-23T16:51:42.325Z,50.40
2022-08-23T16:54:09.295Z,51.70
2022-08-23T16:56:38.502Z,50.50
2022-08-23T16:59:08.017Z,52.10
2022-08-23T17:02:00.959Z,51.20
2022-08-23T17:04:38.196Z,52.50
2022-08-23T17:07:06.401Z,53.70
2022-08-23T17:09:33.423Z,55.90
2022-08-23T17:12:01.052Z,55.50
2022-08-23T17:14:28.375Z,55.70
2022-08-23T17:16:55.518Z,58.40
2022-08-23T17:19:22.737Z,58.80
2022-08-23T17:21:49.762Z,60.30
2022-08-23T17:24:16.730Z,61.40
2022-08-23T17:26:43.776Z,62.20
2022-08-23T17:29:12.219Z,64.80
2022-08-23T17:31:40.170Z,63.70
2022-08-23T17:34:07.530Z,66.50
2022-08-23T17:36:47.855Z,64.40
2022-08-23T17:39:18.479Z,66.40
2022-08-23T17:41:45.839Z,67.40
2022-08-23T17:44:13.280Z,70.30
2022-08-23T17:46:43.183Z,69.20
2022-08-23T17:49:11.050Z,68.40
2022-08-23T17:51:41.119Z,69.50
2022-08-23T17:54:10.072Z,71.40
2022-08-23T17:56:38.024Z,70.50
2022-08-23T17:59:08.337Z,72.80
2022-08-23T18:01:35.982Z,73.10
2022-08-23T18:04:05.595Z,74.20
2022-08-23T18:06:33.758Z,75.20
2022-08-23T18:09:02.823Z,75.70
2022-08-23T18:11:31.982Z,77.40
2022-08-23T18:13:58.959Z,78.00
2022-08-23T18:16:34.434Z,78.60
2022-08-23T18:19:03.070Z,79.50
2022-08-23T18:21:30.821Z,79.70
2022-08-23T18:23:59.016Z,80.90
2022-08-23T18:26:45.245Z,81.20
2022-08-23T18:29:14.890Z,82.00
2022-08-23T18:31:43.270Z,83.10
2022-08-23T18:34:12.187Z,83.80
2022-08-23T18:36:39.297Z,85.40
2022-08-23T18:39:08.108Z,86.80
2022-08-23T18:41:35.345Z,88.10
2022-08-23T18:44:05.481Z,89.00
2022-08-23T18:46:34.622Z,89.90
2022-08-23T18:49:01.861Z,90.10
2022-08-23T18:51:29.668Z,90.10
2022-08-23T18:53:57.057Z,90.20
2022-08-23T18:56:24.125Z,90.60
2022-08-23T18:58:51.652Z,91.20
2022-08-23T19:01:24.274Z,91.50
2022-08-23T19:03:52.391Z,91.90
2022-08-23T19:06:19.631Z,92.40
2022-08-23T19:08:46.905Z,92.50
2022-08-23T19:11:13.875Z,92.40
2022-08-23T19:13:41.238Z,92.40
2022-08-23T19:16:13.250Z,92.40
2022-08-23T19:18:42.029Z,92.60
2022-08-23T19:21:10.101Z,92.90
2022-08-23T19:23:37.741Z,93.20
2022-08-23T19:26:09.194Z,93.40
2022-08-23T19:28:37.602Z,93.50
2022-08-23T19:31:05.474Z,93.60
2022-08-23T19:33:32.609Z,93.40
2022-08-23T19:35:59.597Z,93.70
2022-08-23T19:38:27.887Z,94.10
2022-08-23T19:40:59.078Z,93.80
2022-08-23T19:43:27.086Z,93.90
2022-08-23T19:45:54.933Z,94.30
2022-08-23T19:48:22.296Z,94.80
2022-08-23T19:50:50.134Z,95.20
2022-08-23T19:53:17.391Z,96.00
2022-08-23T19:55:45.118Z,96.40
2022-08-23T19:58:13.629Z,97.00
2022-08-23T20:00:40.901Z,97.10
2022-08-23T20:03:07.946Z,97.50
2022-08-23T20:05:34.898Z,97.90
2022-08-23T20:08:01.881Z,98.20
2022-08-23T20:10:28.904Z,98.70
2022-08-23T20:12:55.840Z,99.10
2022-08-23T20:15:22.888Z,99.70
2022-08-23T20:17:49.845Z,99.90
2022-08-23T20:20:17.007Z,99.90
2022-08-23T20:23:02.642Z,99.90
2022-08-23T20:25:30.564Z,99.90
2022-08-23T20:27:58.274Z,99.90
2022-08-23T20:30:25.445Z,99.90
2022-08-23T20:32:52.426Z,99.90
2022-08-23T20:35:19.621Z,99.90
2022-08-23T20:37:46.500Z,99.90
2022-08-23T20:40:14.619Z,99.90
2022-08-23T20:42:41.744Z,99.90
2022-08-23T20:45:09.173Z,99.90
2022-08-23T20:47:36.578Z,99.90
2022-08-23T20:50:04.045Z,99.90
2022-08-23T20:52:34.560Z,99.90
2022-08-23T20:55:02.248Z,99.90
2022-08-23T20:57:36.783Z,99.90
2022-08-23T21:00:06.072Z,99.90
2022-08-23T21:02:33.104Z,99.90
2022-08-23T21:05:00.106Z,99.90
2022-08-23T21:07:27.252Z,99.90
2022-08-23T21:09:55.216Z,99.90
2022-08-23T21:12:22.064Z,99.90
2022-08-23T21:14:48.955Z,99.90
2022-08-23T21:17:16.027Z,99.90
2022-08-23T21:19:44.226Z,99.90
2022-08-23T21:22:11.149Z,99.90
2022-08-23T21:24:38.541Z,99.90
2022-08-23T21:27:09.303Z,99.90
2022-08-23T21:29:38.581Z,99.90
2022-08-23T21:32:06.850Z,99.90
2022-08-23T21:34:34.492Z,99.90
2022-08-23T21:37:01.424Z,99.90
2022-08-23T21:39:28.555Z,99.90
2022-08-23T21:41:56.447Z,99.90
2022-08-23T21:44:24.744Z,99.90
2022-08-23T21:46:52.070Z,99.90
2022-08-23T21:49:21.057Z,99.90
2022-08-23T21:51:49.162Z,99.90
2022-08-23T21:54:18.242Z,99.90
2022-08-23T21:56:45.969Z,99.90
2022-08-23T21:59:16.559Z,99.90
2022-08-23T22:01:44.411Z,99.90
2022-08-23T22:04:13.392Z,99.90
2022-08-23T22:06:42.233Z,99.90
2022-08-23T22:09:13.603Z,99.90
2022-08-23T22:11:42.940Z,99.90
2022-08-23T22:14:12.002Z,99.90
2022-08-23T22:16:41.055Z,99.90
2022-08-23T22:19:07.948Z,99.90
2022-08-23T22:21:35.373Z,99.90
2022-08-23T22:24:02.724Z,99.90
2022-08-23T22:26:29.698Z,99.90
2022-08-23T22:28:57.185Z,99.90
2022-08-23T22:31:24.565Z,99.90
2022-08-23T22:33:52.805Z,99.90
2022-08-23T22:36:22.556Z,99.90
2022-08-23T22:38:51.023Z,99.90
2022-08-23T22:41:23.905Z,99.90
2022-08-23T22:43:54.397Z,99.90
2022-08-23T22:46:22.523Z,99.90
2022-08-23T22:48:50.069Z,99.90
2022-08-23T22:51:20.946Z,99.90
2022-08-23T22:53:51.337Z,99.90
2022-08-23T22:56:21.750Z,99.90
2022-08-23T22:58:51.653Z,99.90
2022-08-23T23:01:22.726Z,99.90
2022-08-23T23:03:51.386Z,99.90
2022-08-23T23:06:20.366Z,99.90
2022-08-23T23:08:48.273Z,99.90
2022-08-23T23:11:16.480Z,99.90
2022-08-23T23:13:43.494Z,99.90
2022-08-23T23:16:15.477Z,99.90
2022-08-23T23:19:04.702Z,99.90
2022-08-23T23:21:38.570Z,99.90
2022-08-23T23:24:05.953Z,99.90
2022-08-23T23:26:32.922Z,99.90
2022-08-23T23:29:00.101Z,99.90
2022-08-23T23:31:27.306Z,99.90
2022-08-23T23:33:54.316Z,99.90
2022-08-23T23:36:21.460Z,99.90
2022-08-23T23:38:49.025Z,99.90
2022-08-23T23:41:16.174Z,99.90
2022-08-23T23:43:43.206Z,99.90
2022-08-23T23:46:12.835Z,99.90
2022-08-23T23:48:41.556Z,99.90
2022-08-23T23:51:11.405Z,99.90
2022-08-23T23:53:39.437Z,99.90
2022-08-23T23:56:10.167Z,99.90
2022-08-23T23:58:38.000Z,99.90
